Phippsburg, Colorado
Current Conditions -  °F | °C
As of 5:35 AM on Sunday 21 Dec 2014 (Local Time) from KSBS Reporting Station
Overcast Overcast  
Wind Chill: 18°   Ceiling: 800
Heat Index: 25°   Visibility: 1.7mi
Dew Point: 24°   Wind: 6mph
Humidity: 96%   Direction: 110°ESE
Pressure: 29.93"   Gusts: NA
Location:  40.23°N, 106.94°W
Report Text: KSBS 211235Z AUTO 11005KT 1 3/4SM BKN008 BKN015 OVC020 M04/M04 A2993 RMK AO1 T10381043
Loading
Personal Weather Stations






























Interactive Weather Map New forecast layout! Learn more

10-Day Weather Forecast

Advertisements
Track Severe Weather on mobile